sensor_id;sensor_type;location;lat;lon;timestamp;temperature;humidity
7684;DHT22;3884;48.616;12.872;2023-07-08T00:00:23;17.50;1.00
7684;DHT22;3884;48.616;12.872;2023-07-08T00:02:52;17.50;1.00
7684;DHT22;3884;48.616;12.872;2023-07-08T00:05:21;17.50;1.00
7684;DHT22;3884;48.616;12.872;2023-07-08T00:07:48;17.50;1.00
7684;DHT22;3884;48.616;12.872;2023-07-08T00:10:16;17.50;1.00
7684;DHT22;3884;48.616;12.872;2023-07-08T00:12:45;17.50;1.00
7684;DHT22;3884;48.616;12.872;2023-07-08T00:15:12;17.40;1.00
7684;DHT22;3884;48.616;12.872;2023-07-08T00:17:40;17.40;1.00
7684;DHT22;3884;48.616;12.872;2023-07-08T00:20:12;17.30;1.00
7684;DHT22;3884;48.616;12.872;2023-07-08T00:22:40;17.10;1.00
7684;DHT22;3884;48.616;12.872;2023-07-08T00:25:08;17.10;1.00
7684;DHT22;3884;48.616;12.872;2023-07-08T00:27:35;17.00;1.00
7684;DHT22;3884;48.616;12.872;2023-07-08T00:30:10;17.10;1.00
7684;DHT22;3884;48.616;12.872;2023-07-08T00:32:41;17.10;1.00
7684;DHT22;3884;48.616;12.872;2023-07-08T00:35:08;17.10;1.00
7684;DHT22;3884;48.616;12.872;2023-07-08T00:37:35;17.10;1.00
7684;DHT22;3884;48.616;12.872;2023-07-08T00:40:08;16.90;1.00
7684;DHT22;3884;48.616;12.872;2023-07-08T00:42:39;16.70;1.00
7684;DHT22;3884;48.616;12.872;2023-07-08T00:45:18;16.70;15.20
7684;DHT22;3884;48.616;12.872;2023-07-08T00:47:49;16.70;8.70
7684;DHT22;3884;48.616;12.872;2023-07-08T00:50:17;16.70;1.00
7684;DHT22;3884;48.616;12.872;2023-07-08T00:52:47;16.50;65.30
7684;DHT22;3884;48.616;12.872;2023-07-08T00:55:14;16.50;94.60
7684;DHT22;3884;48.616;12.872;2023-07-08T00:57:44;16.50;99.90
7684;DHT22;3884;48.616;12.872;2023-07-08T01:00:14;16.40;99.90
7684;DHT22;3884;48.616;12.872;2023-07-08T01:02:45;16.40;99.90
7684;DHT22;3884;48.616;12.872;2023-07-08T01:05:15;16.40;55.00
7684;DHT22;3884;48.616;12.872;2023-07-08T01:07:46;16.50;99.90
7684;DHT22;3884;48.616;12.872;2023-07-08T01:10:19;16.60;58.80
7684;DHT22;3884;48.616;12.872;2023-07-08T01:12:51;16.60;1.00
7684;DHT22;3884;48.616;12.872;2023-07-08T01:15:20;16.80;1.00
7684;DHT22;3884;48.616;12.872;2023-07-08T01:17:49;16.90;1.00
7684;DHT22;3884;48.616;12.872;2023-07-08T01:20:20;17.10;1.00
7684;DHT22;3884;48.616;12.872;2023-07-08T01:22:48;17.10;1.00
7684;DHT22;3884;48.616;12.872;2023-07-08T01:25:16;17.20;1.00
7684;DHT22;3884;48.616;12.872;2023-07-08T01:27:46;17.30;1.00
7684;DHT22;3884;48.616;12.872;2023-07-08T01:30:14;17.30;1.00
7684;DHT22;3884;48.616;12.872;2023-07-08T01:32:45;17.10;1.00
7684;DHT22;3884;48.616;12.872;2023-07-08T01:35:14;17.20;1.00
7684;DHT22;3884;48.616;12.872;2023-07-08T01:37:44;17.10;1.00
7684;DHT22;3884;48.616;12.872;2023-07-08T01:40:24;17.20;1.00
7684;DHT22;3884;48.616;12.872;2023-07-08T01:42:51;17.30;1.00
7684;DHT22;3884;48.616;12.872;2023-07-08T01:45:20;17.40;1.00
7684;DHT22;3884;48.616;12.872;2023-07-08T01:47:50;17.30;1.00
7684;DHT22;3884;48.616;12.872;2023-07-08T01:50:18;17.20;1.00
7684;DHT22;3884;48.616;12.872;2023-07-08T01:52:45;17.20;1.00
7684;DHT22;3884;48.616;12.872;2023-07-08T01:55:13;17.20;1.00
7684;DHT22;3884;48.616;12.872;2023-07-08T01:57:43;17.10;1.00
7684;DHT22;3884;48.616;12.872;2023-07-08T02:00:11;17.20;1.00
7684;DHT22;3884;48.616;12.872;2023-07-08T02:02:40;17.10;1.00
7684;DHT22;3884;48.616;12.872;2023-07-08T02:05:08;17.20;1.00
7684;DHT22;3884;48.616;12.872;2023-07-08T02:07:34;17.10;1.00
7684;DHT22;3884;48.616;12.872;2023-07-08T02:10:01;16.90;1.00
7684;DHT22;3884;48.616;12.872;2023-07-08T02:12:28;16.90;1.00
7684;DHT22;3884;48.616;12.872;2023-07-08T02:14:59;16.90;1.00
7684;DHT22;3884;48.616;12.872;2023-07-08T02:17:26;16.70;70.60
7684;DHT22;3884;48.616;12.872;2023-07-08T02:19:54;16.80;90.70
7684;DHT22;3884;48.616;12.872;2023-07-08T02:22:21;16.60;99.90
7684;DHT22;3884;48.616;12.872;2023-07-08T02:24:48;16.40;99.90
7684;DHT22;3884;48.616;12.872;2023-07-08T02:27:15;16.30;99.90
7684;DHT22;3884;48.616;12.872;2023-07-08T02:29:42;16.30;99.90
7684;DHT22;3884;48.616;12.872;2023-07-08T02:32:10;16.10;1.00
7684;DHT22;3884;48.616;12.872;2023-07-08T02:34:37;16.20;1.00
7684;DHT22;3884;48.616;12.872;2023-07-08T02:37:04;16.30;99.90
7684;DHT22;3884;48.616;12.872;2023-07-08T02:39:31;16.20;99.90
7684;DHT22;3884;48.616;12.872;2023-07-08T02:41:58;16.10;1.00
7684;DHT22;3884;48.616;12.872;2023-07-08T02:44:26;16.30;1.00
7684;DHT22;3884;48.616;12.872;2023-07-08T02:46:53;16.10;1.00
7684;DHT22;3884;48.616;12.872;2023-07-08T02:49:21;16.20;1.00
7684;DHT22;3884;48.616;12.872;2023-07-08T02:51:49;16.00;1.00
7684;DHT22;3884;48.616;12.872;2023-07-08T02:54:16;15.80;1.00
7684;DHT22;3884;48.616;12.872;2023-07-08T02:56:43;15.80;1.00
7684;DHT22;3884;48.616;12.872;2023-07-08T02:59:11;15.70;1.00
7684;DHT22;3884;48.616;12.872;2023-07-08T03:01:38;15.60;1.00
7684;DHT22;3884;48.616;12.872;2023-07-08T03:04:08;15.50;1.00
7684;DHT22;3884;48.616;12.872;2023-07-08T03:06:41;15.50;99.90
7684;DHT22;3884;48.616;12.872;2023-07-08T03:09:10;15.40;99.90
7684;DHT22;3884;48.616;12.872;2023-07-08T03:11:37;15.10;99.90
7684;DHT22;3884;48.616;12.872;2023-07-08T03:14:04;15.20;99.90
7684;DHT22;3884;48.616;12.872;2023-07-08T03:16:32;15.20;99.90
7684;DHT22;3884;48.616;12.872;2023-07-08T03:19:00;15.30;99.90
7684;DHT22;3884;48.616;12.872;2023-07-08T03:21:28;15.30;99.90
7684;DHT22;3884;48.616;12.872;2023-07-08T03:23:57;15.30;99.90
7684;DHT22;3884;48.616;12.872;2023-07-08T03:26:25;15.20;99.90
7684;DHT22;3884;48.616;12.872;2023-07-08T03:28:55;15.10;99.90
7684;DHT22;3884;48.616;12.872;2023-07-08T03:31:23;15.20;99.90
7684;DHT22;3884;48.616;12.872;2023-07-08T03:33:50;15.20;99.90
7684;DHT22;3884;48.616;12.872;2023-07-08T03:36:18;15.30;99.90
7684;DHT22;3884;48.616;12.872;2023-07-08T03:38:49;15.40;1.00
7684;DHT22;3884;48.616;12.872;2023-07-08T03:41:18;15.30;1.00
7684;DHT22;3884;48.616;12.872;2023-07-08T03:43:45;15.30;1.00
7684;DHT22;3884;48.616;12.872;2023-07-08T03:46:13;15.30;1.00
7684;DHT22;3884;48.616;12.872;2023-07-08T03:48:41;15.20;1.00
7684;DHT22;3884;48.616;12.872;2023-07-08T03:51:10;15.20;1.00
7684;DHT22;3884;48.616;12.872;2023-07-08T03:53:40;15.10;1.00
7684;DHT22;3884;48.616;12.872;2023-07-08T03:56:11;15.10;26.70
7684;DHT22;3884;48.616;12.872;2023-07-08T03:58:40;15.10;69.40
7684;DHT22;3884;48.616;12.872;2023-07-08T04:01:14;15.00;99.90
7684;DHT22;3884;48.616;12.872;2023-07-08T04:03:41;15.10;52.90
7684;DHT22;3884;48.616;12.872;2023-07-08T04:06:09;15.20;42.80
7684;DHT22;3884;48.616;12.872;2023-07-08T04:08:36;15.30;42.20
7684;DHT22;3884;48.616;12.872;2023-07-08T04:11:03;15.30;42.80
7684;DHT22;3884;48.616;12.872;2023-07-08T04:13:31;15.20;99.90
7684;DHT22;3884;48.616;12.872;2023-07-08T04:16:02;15.20;99.90
7684;DHT22;3884;48.616;12.872;2023-07-08T04:18:29;15.40;99.90
7684;DHT22;3884;48.616;12.872;2023-07-08T04:20:56;15.50;99.90
7684;DHT22;3884;48.616;12.872;2023-07-08T04:23:23;15.70;90.40
7684;DHT22;3884;48.616;12.872;2023-07-08T04:25:52;15.80;99.90
7684;DHT22;3884;48.616;12.872;2023-07-08T04:28:21;15.90;93.60
7684;DHT22;3884;48.616;12.872;2023-07-08T04:30:49;15.80;99.90
7684;DHT22;3884;48.616;12.872;2023-07-08T04:33:26;16.00;99.90
7684;DHT22;3884;48.616;12.872;2023-07-08T04:35:54;16.00;99.90
7684;DHT22;3884;48.616;12.872;2023-07-08T04:38:25;16.10;99.90
7684;DHT22;3884;48.616;12.872;2023-07-08T04:40:53;16.30;99.90
7684;DHT22;3884;48.616;12.872;2023-07-08T04:43:23;16.40;99.90
7684;DHT22;3884;48.616;12.872;2023-07-08T04:45:55;16.50;99.90
7684;DHT22;3884;48.616;12.872;2023-07-08T04:48:24;16.60;99.90
7684;DHT22;3884;48.616;12.872;2023-07-08T04:50:53;16.70;99.90
7684;DHT22;3884;48.616;12.872;2023-07-08T04:53:20;16.90;99.90
7684;DHT22;3884;48.616;12.872;2023-07-08T04:55:51;16.90;99.90
7684;DHT22;3884;48.616;12.872;2023-07-08T04:58:19;17.10;12.20
7684;DHT22;3884;48.616;12.872;2023-07-08T05:00:48;17.30;1.00
7684;DHT22;3884;48.616;12.872;2023-07-08T05:03:16;17.40;1.00
7684;DHT22;3884;48.616;12.872;2023-07-08T05:05:44;17.40;1.00
7684;DHT22;3884;48.616;12.872;2023-07-08T05:08:16;17.70;1.00
7684;DHT22;3884;48.616;12.872;2023-07-08T05:10:43;17.90;1.00
7684;DHT22;3884;48.616;12.872;2023-07-08T05:13:09;17.90;1.00
7684;DHT22;3884;48.616;12.872;2023-07-08T05:15:36;18.10;1.00
7684;DHT22;3884;48.616;12.872;2023-07-08T05:18:03;18.10;1.00
7684;DHT22;3884;48.616;12.872;2023-07-08T05:20:31;18.30;1.00
7684;DHT22;3884;48.616;12.872;2023-07-08T05:23:01;18.30;1.00
7684;DHT22;3884;48.616;12.872;2023-07-08T05:25:31;18.60;99.90
7684;DHT22;3884;48.616;12.872;2023-07-08T05:27:58;18.60;99.90
7684;DHT22;3884;48.616;12.872;2023-07-08T05:30:25;18.80;1.00
7684;DHT22;3884;48.616;12.872;2023-07-08T05:32:53;19.10;1.00
7684;DHT22;3884;48.616;12.872;2023-07-08T05:35:20;19.20;1.00
7684;DHT22;3884;48.616;12.872;2023-07-08T05:37:47;19.50;1.00
7684;DHT22;3884;48.616;12.872;2023-07-08T05:40:16;19.70;99.90
7684;DHT22;3884;48.616;12.872;2023-07-08T05:42:43;19.80;99.90
7684;DHT22;3884;48.616;12.872;2023-07-08T05:45:10;20.10;99.90
7684;DHT22;3884;48.616;12.872;2023-07-08T05:47:37;20.10;99.90
7684;DHT22;3884;48.616;12.872;2023-07-08T05:50:04;20.10;99.90
7684;DHT22;3884;48.616;12.872;2023-07-08T05:52:32;20.20;99.90
7684;DHT22;3884;48.616;12.872;2023-07-08T05:54:58;20.40;99.90
7684;DHT22;3884;48.616;12.872;2023-07-08T05:57:27;20.40;99.90
7684;DHT22;3884;48.616;12.872;2023-07-08T05:59:53;20.50;99.90
7684;DHT22;3884;48.616;12.872;2023-07-08T06:02:20;20.50;99.90
7684;DHT22;3884;48.616;12.872;2023-07-08T06:04:51;20.60;99.90
7684;DHT22;3884;48.616;12.872;2023-07-08T06:07:18;20.60;99.90
7684;DHT22;3884;48.616;12.872;2023-07-08T06:09:45;20.70;99.90
7684;DHT22;3884;48.616;12.872;2023-07-08T06:12:12;20.70;99.90
7684;DHT22;3884;48.616;12.872;2023-07-08T06:14:40;20.70;99.90
7684;DHT22;3884;48.616;12.872;2023-07-08T06:17:08;20.70;99.90
7684;DHT22;3884;48.616;12.872;2023-07-08T06:19:36;20.70;99.90
7684;DHT22;3884;48.616;12.872;2023-07-08T06:22:05;20.80;99.90
7684;DHT22;3884;48.616;12.872;2023-07-08T06:24:31;20.90;99.90
7684;DHT22;3884;48.616;12.872;2023-07-08T06:26:58;21.00;99.90
7684;DHT22;3884;48.616;12.872;2023-07-08T06:29:26;21.10;99.90
7684;DHT22;3884;48.616;12.872;2023-07-08T06:31:54;21.40;99.90
7684;DHT22;3884;48.616;12.872;2023-07-08T06:34:23;21.40;99.90
7684;DHT22;3884;48.616;12.872;2023-07-08T06:36:50;21.70;99.90
7684;DHT22;3884;48.616;12.872;2023-07-08T06:39:18;21.80;99.90
7684;DHT22;3884;48.616;12.872;2023-07-08T06:41:45;22.00;99.90
7684;DHT22;3884;48.616;12.872;2023-07-08T06:44:12;22.20;99.90
7684;DHT22;3884;48.616;12.872;2023-07-08T06:46:39;22.40;96.40
7684;DHT22;3884;48.616;12.872;2023-07-08T06:49:07;22.40;99.90
7684;DHT22;3884;48.616;12.872;2023-07-08T06:51:41;22.60;99.90
7684;DHT22;3884;48.616;12.872;2023-07-08T06:54:10;22.80;97.00
7684;DHT22;3884;48.616;12.872;2023-07-08T06:56:38;23.00;84.80
7684;DHT22;3884;48.616;12.872;2023-07-08T06:59:05;23.10;60.20
7684;DHT22;3884;48.616;12.872;2023-07-08T07:01:32;23.10;59.40
7684;DHT22;3884;48.616;12.872;2023-07-08T07:03:59;23.20;59.80
7684;DHT22;3884;48.616;12.872;2023-07-08T07:06:29;23.40;62.00
7684;DHT22;3884;48.616;12.872;2023-07-08T07:08:56;23.60;59.70
7684;DHT22;3884;48.616;12.872;2023-07-08T07:11:23;23.70;38.00
7684;DHT22;3884;48.616;12.872;2023-07-08T07:13:49;23.80;27.70
7684;DHT22;3884;48.616;12.872;2023-07-08T07:16:16;23.90;26.90
7684;DHT22;3884;48.616;12.872;2023-07-08T07:18:43;23.90;21.50
7684;DHT22;3884;48.616;12.872;2023-07-08T07:21:11;24.00;20.50
7684;DHT22;3884;48.616;12.872;2023-07-08T07:23:41;24.20;31.30
7684;DHT22;3884;48.616;12.872;2023-07-08T07:26:07;24.50;15.50
7684;DHT22;3884;48.616;12.872;2023-07-08T07:28:34;24.20;1.00
7684;DHT22;3884;48.616;12.872;2023-07-08T07:31:02;24.20;1.20
7684;DHT22;3884;48.616;12.872;2023-07-08T07:33:31;24.40;1.00
7684;DHT22;3884;48.616;12.872;2023-07-08T07:35:58;24.50;1.00
7684;DHT22;3884;48.616;12.872;2023-07-08T07:38:27;24.50;1.00
7684;DHT22;3884;48.616;12.872;2023-07-08T07:40:56;24.70;1.00
7684;DHT22;3884;48.616;12.872;2023-07-08T07:43:25;24.90;1.00
7684;DHT22;3884;48.616;12.872;2023-07-08T07:45:52;24.70;1.00
7684;DHT22;3884;48.616;12.872;2023-07-08T07:48:20;24.90;1.00
7684;DHT22;3884;48.616;12.872;2023-07-08T07:50:48;24.90;1.00
7684;DHT22;3884;48.616;12.872;2023-07-08T07:53:16;25.10;1.00
7684;DHT22;3884;48.616;12.872;2023-07-08T07:55:45;25.30;1.00
7684;DHT22;3884;48.616;12.872;2023-07-08T07:58:13;25.30;1.00
7684;DHT22;3884;48.616;12.872;2023-07-08T08:00:40;25.50;1.00
7684;DHT22;3884;48.616;12.872;2023-07-08T08:03:07;25.60;1.00
7684;DHT22;3884;48.616;12.872;2023-07-08T08:05:34;25.50;1.00
7684;DHT22;3884;48.616;12.872;2023-07-08T08:08:01;25.70;1.00
7684;DHT22;3884;48.616;12.872;2023-07-08T08:10:30;25.90;1.00
7684;DHT22;3884;48.616;12.872;2023-07-08T08:12:58;26.10;1.00
7684;DHT22;3884;48.616;12.872;2023-07-08T08:15:26;26.00;1.00
7684;DHT22;3884;48.616;12.872;2023-07-08T08:17:55;26.20;1.00
7684;DHT22;3884;48.616;12.872;2023-07-08T08:20:24;26.20;1.00
7684;DHT22;3884;48.616;12.872;2023-07-08T08:22:51;26.20;1.00
7684;DHT22;3884;48.616;12.872;2023-07-08T08:25:19;26.20;1.00
7684;DHT22;3884;48.616;12.872;2023-07-08T08:27:47;26.50;1.00
7684;DHT22;3884;48.616;12.872;2023-07-08T08:30:14;26.80;1.00
7684;DHT22;3884;48.616;12.872;2023-07-08T08:32:42;26.80;1.00
7684;DHT22;3884;48.616;12.872;2023-07-08T08:35:09;26.90;1.00
7684;DHT22;3884;48.616;12.872;2023-07-08T08:37:36;27.20;1.00
7684;DHT22;3884;48.616;12.872;2023-07-08T08:40:04;27.50;1.00
7684;DHT22;3884;48.616;12.872;2023-07-08T08:42:39;27.50;1.00
7684;DHT22;3884;48.616;12.872;2023-07-08T08:45:10;27.20;1.00
7684;DHT22;3884;48.616;12.872;2023-07-08T08:47:40;27.20;1.00
7684;DHT22;3884;48.616;12.872;2023-07-08T08:50:22;26.90;1.00
7684;DHT22;3884;48.616;12.872;2023-07-08T08:52:51;27.30;1.00
7684;DHT22;3884;48.616;12.872;2023-07-08T08:55:22;27.40;1.00
7684;DHT22;3884;48.616;12.872;2023-07-08T08:57:59;27.30;1.00
7684;DHT22;3884;48.616;12.872;2023-07-08T09:00:35;27.30;1.00
7684;DHT22;3884;48.616;12.872;2023-07-08T09:03:08;27.60;1.00
7684;DHT22;3884;48.616;12.872;2023-07-08T09:05:41;27.80;1.00
7684;DHT22;3884;48.616;12.872;2023-07-08T09:08:13;27.40;1.00
7684;DHT22;3884;48.616;12.872;2023-07-08T09:10:47;27.00;1.00
7684;DHT22;3884;48.616;12.872;2023-07-08T09:13:21;26.80;1.00
7684;DHT22;3884;48.616;12.872;2023-07-08T09:15:50;26.90;1.00
7684;DHT22;3884;48.616;12.872;2023-07-08T09:18:27;27.10;1.00
7684;DHT22;3884;48.616;12.872;2023-07-08T09:20:58;27.30;1.00
7684;DHT22;3884;48.616;12.872;2023-07-08T09:23:30;27.80;1.00
7684;DHT22;3884;48.616;12.872;2023-07-08T09:26:02;27.70;1.00
7684;DHT22;3884;48.616;12.872;2023-07-08T09:28:38;27.80;1.00
7684;DHT22;3884;48.616;12.872;2023-07-08T09:31:07;28.00;1.00
7684;DHT22;3884;48.616;12.872;2023-07-08T09:33:38;27.90;1.00
7684;DHT22;3884;48.616;12.872;2023-07-08T09:36:17;28.00;1.00
7684;DHT22;3884;48.616;12.872;2023-07-08T09:38:47;28.00;1.00
7684;DHT22;3884;48.616;12.872;2023-07-08T09:41:32;27.70;1.00
7684;DHT22;3884;48.616;12.872;2023-07-08T09:44:16;27.60;1.00
7684;DHT22;3884;48.616;12.872;2023-07-08T09:46:43;27.60;1.00
7684;DHT22;3884;48.616;12.872;2023-07-08T09:49:18;27.90;1.00
7684;DHT22;3884;48.616;12.872;2023-07-08T09:51:48;28.00;1.00
7684;DHT22;3884;48.616;12.872;2023-07-08T09:54:16;27.70;1.00
7684;DHT22;3884;48.616;12.872;2023-07-08T09:56:47;27.70;1.00
7684;DHT22;3884;48.616;12.872;2023-07-08T09:59:19;27.60;1.00
7684;DHT22;3884;48.616;12.872;2023-07-08T10:01:47;27.70;1.00
7684;DHT22;3884;48.616;12.872;2023-07-08T10:04:14;27.90;1.00
7684;DHT22;3884;48.616;12.872;2023-07-08T10:06:49;28.30;1.00
7684;DHT22;3884;48.616;12.872;2023-07-08T10:09:20;28.60;1.00
7684;DHT22;3884;48.616;12.872;2023-07-08T10:11:51;28.40;1.00
7684;DHT22;3884;48.616;12.872;2023-07-08T10:14:25;28.30;1.00
7684;DHT22;3884;48.616;12.872;2023-07-08T10:16:53;28.20;1.00
7684;DHT22;3884;48.616;12.872;2023-07-08T10:19:21;28.20;1.00
7684;DHT22;3884;48.616;12.872;2023-07-08T10:21:55;28.30;1.00
7684;DHT22;3884;48.616;12.872;2023-07-08T10:24:37;28.10;1.00
7684;DHT22;3884;48.616;12.872;2023-07-08T10:27:15;28.30;1.00
7684;DHT22;3884;48.616;12.872;2023-07-08T10:29:52;28.30;1.00
7684;DHT22;3884;48.616;12.872;2023-07-08T10:32:33;28.70;1.00
7684;DHT22;3884;48.616;12.872;2023-07-08T10:35:12;28.80;1.00
7684;DHT22;3884;48.616;12.872;2023-07-08T10:37:48;28.90;1.00
7684;DHT22;3884;48.616;12.872;2023-07-08T10:40:28;28.50;1.00
7684;DHT22;3884;48.616;12.872;2023-07-08T10:43:09;28.70;1.00
7684;DHT22;3884;48.616;12.872;2023-07-08T10:45:43;28.40;1.00
7684;DHT22;3884;48.616;12.872;2023-07-08T10:48:25;28.20;1.00
7684;DHT22;3884;48.616;12.872;2023-07-08T10:51:05;27.90;1.00
7684;DHT22;3884;48.616;12.872;2023-07-08T10:53:46;28.30;1.00
7684;DHT22;3884;48.616;12.872;2023-07-08T10:56:20;28.20;1.00
7684;DHT22;3884;48.616;12.872;2023-07-08T10:59:00;28.50;1.00
7684;DHT22;3884;48.616;12.872;2023-07-08T11:01:37;28.60;1.00
7684;DHT22;3884;48.616;12.872;2023-07-08T11:04:21;28.80;1.00
7684;DHT22;3884;48.616;12.872;2023-07-08T11:06:55;28.90;1.00
7684;DHT22;3884;48.616;12.872;2023-07-08T11:09:28;28.90;1.00
7684;DHT22;3884;48.616;12.872;2023-07-08T11:11:59;29.10;1.00
7684;DHT22;3884;48.616;12.872;2023-07-08T11:14:29;29.20;1.00
7684;DHT22;3884;48.616;12.872;2023-07-08T11:17:11;29.10;1.00
7684;DHT22;3884;48.616;12.872;2023-07-08T11:19:47;29.00;1.00
7684;DHT22;3884;48.616;12.872;2023-07-08T11:22:15;28.80;1.00
7684;DHT22;3884;48.616;12.872;2023-07-08T11:24:46;28.90;1.00
7684;DHT22;3884;48.616;12.872;2023-07-08T11:27:16;29.20;1.00
7684;DHT22;3884;48.616;12.872;2023-07-08T11:29:52;29.40;1.00
7684;DHT22;3884;48.616;12.872;2023-07-08T11:32:23;29.20;1.00
7684;DHT22;3884;48.616;12.872;2023-07-08T11:34:53;29.10;1.00
7684;DHT22;3884;48.616;12.872;2023-07-08T11:37:22;29.40;1.00
7684;DHT22;3884;48.616;12.872;2023-07-08T11:39:58;29.10;1.00
7684;DHT22;3884;48.616;12.872;2023-07-08T11:42:34;29.20;1.00
7684;DHT22;3884;48.616;12.872;2023-07-08T11:45:08;29.30;1.00
7684;DHT22;3884;48.616;12.872;2023-07-08T11:47:39;29.20;1.00
7684;DHT22;3884;48.616;12.872;2023-07-08T11:50:14;29.30;1.00
7684;DHT22;3884;48.616;12.872;2023-07-08T11:52:51;29.40;1.00
7684;DHT22;3884;48.616;12.872;2023-07-08T11:55:24;29.40;1.00
7684;DHT22;3884;48.616;12.872;2023-07-08T11:57:54;29.30;1.00
7684;DHT22;3884;48.616;12.872;2023-07-08T12:00:24;29.30;1.00
7684;DHT22;3884;48.616;12.872;2023-07-08T12:02:56;29.60;1.00
7684;DHT22;3884;48.616;12.872;2023-07-08T12:05:32;29.50;1.00
7684;DHT22;3884;48.616;12.872;2023-07-08T12:08:00;29.60;1.00
7684;DHT22;3884;48.616;12.872;2023-07-08T12:10:33;29.70;1.00
7684;DHT22;3884;48.616;12.872;2023-07-08T12:13:02;29.70;1.00
7684;DHT22;3884;48.616;12.872;2023-07-08T12:15:31;29.80;1.00
7684;DHT22;3884;48.616;12.872;2023-07-08T12:18:00;30.00;1.00
7684;DHT22;3884;48.616;12.872;2023-07-08T12:20:30;30.30;1.00
7684;DHT22;3884;48.616;12.872;2023-07-08T12:22:57;30.50;1.00
7684;DHT22;3884;48.616;12.872;2023-07-08T12:25:28;30.70;1.00
7684;DHT22;3884;48.616;12.872;2023-07-08T12:27:58;30.70;1.00
7684;DHT22;3884;48.616;12.872;2023-07-08T12:30:27;30.60;1.00
7684;DHT22;3884;48.616;12.872;2023-07-08T12:32:55;30.70;1.00
7684;DHT22;3884;48.616;12.872;2023-07-08T12:35:27;30.90;1.00
7684;DHT22;3884;48.616;12.872;2023-07-08T12:37:56;30.60;1.00
7684;DHT22;3884;48.616;12.872;2023-07-08T12:40:25;30.70;1.00
7684;DHT22;3884;48.616;12.872;2023-07-08T12:42:53;30.60;1.00
7684;DHT22;3884;48.616;12.872;2023-07-08T12:45:23;30.70;1.00
7684;DHT22;3884;48.616;12.872;2023-07-08T12:47:50;30.80;1.00
7684;DHT22;3884;48.616;12.872;2023-07-08T12:50:17;30.60;1.00
7684;DHT22;3884;48.616;12.872;2023-07-08T12:52:45;30.70;1.00
7684;DHT22;3884;48.616;12.872;2023-07-08T12:55:15;31.10;1.00
7684;DHT22;3884;48.616;12.872;2023-07-08T12:57:45;31.20;1.00
7684;DHT22;3884;48.616;12.872;2023-07-08T13:00:16;31.20;1.00
7684;DHT22;3884;48.616;12.872;2023-07-08T13:02:47;31.20;1.00
7684;DHT22;3884;48.616;12.872;2023-07-08T13:05:17;31.20;1.00
7684;DHT22;3884;48.616;12.872;2023-07-08T13:07:44;31.10;1.00
7684;DHT22;3884;48.616;12.872;2023-07-08T13:10:18;31.10;1.00
7684;DHT22;3884;48.616;12.872;2023-07-08T13:12:47;31.30;1.00
7684;DHT22;3884;48.616;12.872;2023-07-08T13:15:20;31.50;1.00
7684;DHT22;3884;48.616;12.872;2023-07-08T13:17:49;31.80;1.00
7684;DHT22;3884;48.616;12.872;2023-07-08T13:20:17;31.70;1.00
7684;DHT22;3884;48.616;12.872;2023-07-08T13:22:51;31.80;1.00
7684;DHT22;3884;48.616;12.872;2023-07-08T13:25:19;31.60;1.00
7684;DHT22;3884;48.616;12.872;2023-07-08T13:27:55;31.60;1.00
7684;DHT22;3884;48.616;12.872;2023-07-08T13:30:25;31.50;1.00
7684;DHT22;3884;48.616;12.872;2023-07-08T13:32:54;31.80;1.00
7684;DHT22;3884;48.616;12.872;2023-07-08T13:35:27;32.00;1.00
7684;DHT22;3884;48.616;12.872;2023-07-08T13:37:56;32.10;1.00
7684;DHT22;3884;48.616;12.872;2023-07-08T13:40:26;32.10;1.00
7684;DHT22;3884;48.616;12.872;2023-07-08T13:42:53;32.20;1.00
7684;DHT22;3884;48.616;12.872;2023-07-08T13:45:24;32.70;1.00
7684;DHT22;3884;48.616;12.872;2023-07-08T13:48:01;32.90;1.00
7684;DHT22;3884;48.616;12.872;2023-07-08T13:50:44;32.40;1.00
7684;DHT22;3884;48.616;12.872;2023-07-08T13:53:20;32.20;1.00
7684;DHT22;3884;48.616;12.872;2023-07-08T13:55:48;32.40;1.00
7684;DHT22;3884;48.616;12.872;2023-07-08T13:58:26;32.70;1.00
7684;DHT22;3884;48.616;12.872;2023-07-08T14:00:54;32.90;1.00
7684;DHT22;3884;48.616;12.872;2023-07-08T14:03:23;33.30;1.00
7684;DHT22;3884;48.616;12.872;2023-07-08T14:05:50;33.40;1.00
7684;DHT22;3884;48.616;12.872;2023-07-08T14:08:17;33.20;1.00
7684;DHT22;3884;48.616;12.872;2023-07-08T14:10:44;33.30;1.00
7684;DHT22;3884;48.616;12.872;2023-07-08T14:13:11;33.20;1.00
7684;DHT22;3884;48.616;12.872;2023-07-08T14:15:39;32.90;1.00
7684;DHT22;3884;48.616;12.872;2023-07-08T14:18:07;32.90;1.00
7684;DHT22;3884;48.616;12.872;2023-07-08T14:20:37;32.60;1.00
7684;DHT22;3884;48.616;12.872;2023-07-08T14:23:04;32.90;1.00
7684;DHT22;3884;48.616;12.872;2023-07-08T14:25:30;33.40;1.00
7684;DHT22;3884;48.616;12.872;2023-07-08T14:27:57;33.70;1.00
7684;DHT22;3884;48.616;12.872;2023-07-08T14:30:24;33.30;1.00
7684;DHT22;3884;48.616;12.872;2023-07-08T14:32:51;33.50;1.00
7684;DHT22;3884;48.616;12.872;2023-07-08T14:35:23;33.20;1.00
7684;DHT22;3884;48.616;12.872;2023-07-08T14:37:52;33.20;1.00
7684;DHT22;3884;48.616;12.872;2023-07-08T14:40:24;32.80;1.00
7684;DHT22;3884;48.616;12.872;2023-07-08T14:42:58;32.90;1.00
7684;DHT22;3884;48.616;12.872;2023-07-08T14:45:28;33.40;1.00
7684;DHT22;3884;48.616;12.872;2023-07-08T14:47:56;33.20;1.00
7684;DHT22;3884;48.616;12.872;2023-07-08T14:50:23;33.60;1.00
7684;DHT22;3884;48.616;12.872;2023-07-08T14:52:56;33.50;1.00
7684;DHT22;3884;48.616;12.872;2023-07-08T14:55:23;33.50;1.00
7684;DHT22;3884;48.616;12.872;2023-07-08T14:57:50;33.30;1.00
7684;DHT22;3884;48.616;12.872;2023-07-08T15:00:19;33.80;1.00
7684;DHT22;3884;48.616;12.872;2023-07-08T15:02:47;33.90;1.00
7684;DHT22;3884;48.616;12.872;2023-07-08T15:05:17;33.90;1.00
7684;DHT22;3884;48.616;12.872;2023-07-08T15:07:47;34.40;1.00
7684;DHT22;3884;48.616;12.872;2023-07-08T15:10:16;34.20;1.00
7684;DHT22;3884;48.616;12.872;2023-07-08T15:12:44;34.00;1.00
7684;DHT22;3884;48.616;12.872;2023-07-08T15:15:15;34.40;1.00
7684;DHT22;3884;48.616;12.872;2023-07-08T15:17:43;34.90;1.00
7684;DHT22;3884;48.616;12.872;2023-07-08T15:20:12;34.80;1.00
7684;DHT22;3884;48.616;12.872;2023-07-08T15:22:44;35.00;1.00
7684;DHT22;3884;48.616;12.872;2023-07-08T15:25:12;35.30;1.00
7684;DHT22;3884;48.616;12.872;2023-07-08T15:27:43;35.20;1.00
7684;DHT22;3884;48.616;12.872;2023-07-08T15:30:17;35.00;1.00
7684;DHT22;3884;48.616;12.872;2023-07-08T15:32:45;35.00;1.00
7684;DHT22;3884;48.616;12.872;2023-07-08T15:35:14;35.10;1.00
7684;DHT22;3884;48.616;12.872;2023-07-08T15:37:42;35.20;1.00
7684;DHT22;3884;48.616;12.872;2023-07-08T15:40:10;35.10;1.00
7684;DHT22;3884;48.616;12.872;2023-07-08T15:42:41;34.60;1.00
7684;DHT22;3884;48.616;12.872;2023-07-08T15:45:13;34.50;1.00
7684;DHT22;3884;48.616;12.872;2023-07-08T15:47:42;34.70;1.00
7684;DHT22;3884;48.616;12.872;2023-07-08T15:50:11;34.80;1.00
7684;DHT22;3884;48.616;12.872;2023-07-08T15:52:39;35.10;1.00
7684;DHT22;3884;48.616;12.872;2023-07-08T15:55:07;34.90;1.00
7684;DHT22;3884;48.616;12.872;2023-07-08T15:57:39;34.90;1.00
7684;DHT22;3884;48.616;12.872;2023-07-08T16:00:16;34.70;1.00
7684;DHT22;3884;48.616;12.872;2023-07-08T16:02:48;35.10;1.00
7684;DHT22;3884;48.616;12.872;2023-07-08T16:05:18;35.10;1.00
7684;DHT22;3884;48.616;12.872;2023-07-08T16:07:46;35.10;1.00
7684;DHT22;3884;48.616;12.872;2023-07-08T16:10:15;35.00;1.00
7684;DHT22;3884;48.616;12.872;2023-07-08T16:12:42;34.10;1.00